Time;durP1;ratioP1;P1;durP2;ratioP2;P2;SDS_P1;SDS_P2;PMS_P1;PMS_P2;Temp;Humidity;BMP_temperature;BMP_pressure;BME280_temperature;BME280_humidity;BME280_pressure;Samples;Min_cycle;Max_cycle;Signal;HPM_P1;HPM_P2
2023/09/10 00:03:07;;;;;;;19.60;17.70;;;;;;;15.68;78.58;99880.66;436045;1256;139694;-63
2023/09/10 00:13:13;;;;;;;20.40;16.90;;;;;;;15.58;79.51;99877.83;435792;1255;139103;-64
2023/09/10 00:23:20;;;;;;;17.90;15.10;;;;;;;15.49;79.96;99874.66;435716;1253;140062;-62
2023/09/10 00:33:26;;;;;;;17.20;15.40;;;;;;;15.41;80.60;99868.92;436252;1253;139642;-63
2023/09/10 00:43:31;;;;;;;17.10;15.30;;;;;;;15.34;81.12;99861.67;435877;1255;139887;-62
2023/09/10 00:53:37;;;;;;;19.20;17.10;;;;;;;15.28;81.36;99854.61;435697;1256;139064;-64
2023/09/10 01:03:43;;;;;;;18.40;16.60;;;;;;;15.22;81.83;99850.83;435550;1254;140935;-64
2023/09/10 01:14:07;;;;;;;21.00;18.30;;;;;;;15.11;82.13;99847.61;435604;1253;139023;-64
2023/09/10 01:24:25;;;;;;;16.70;15.00;;;;;;;15.15;84.28;99855.92;435805;1254;139373;-62
2023/09/10 01:34:38;;;;;;;21.30;19.00;;;;;;;15.16;84.19;99850.02;435821;1254;139699;-62
2023/09/10 01:44:44;;;;;;;22.30;19.00;;;;;;;15.15;85.46;99850.69;435862;1256;139258;-62
2023/09/10 01:54:50;;;;;;;15.50;14.00;;;;;;;15.26;86.04;99852.30;436003;1256;139638;-62
2023/09/10 02:04:57;;;;;;;20.60;18.50;;;;;;;15.09;85.48;99851.29;436137;1253;141256;-63
2023/09/10 02:15:07;;;;;;;18.20;16.40;;;;;;;15.15;86.79;99849.10;435785;1254;141442;-64
2023/09/10 02:25:13;;;;;;;24.90;14.20;;;;;;;14.95;84.81;99843.39;435943;1253;139555;-63
2023/09/10 02:35:20;;;;;;;18.10;16.20;;;;;;;14.62;84.10;99845.58;435831;1252;139350;-63
2023/09/10 02:45:26;;;;;;;17.80;16.00;;;;;;;14.39;84.54;99846.38;435856;1254;141287;-63
2023/09/10 02:55:32;;;;;;;23.40;20.60;;;;;;;14.22;84.57;99843.81;436129;1253;139774;-63
2023/09/10 03:05:37;;;;;;;16.80;15.00;;;;;;;14.04;85.06;99842.66;435960;1256;139655;-64
2023/09/10 03:15:46;;;;;;;17.10;15.50;;;;;;;13.89;85.01;99845.91;435547;1254;140191;-63
2023/09/10 03:25:52;;;;;;;18.40;16.60;;;;;;;13.76;85.62;99841.38;435564;1254;139144;-63
2023/09/10 03:35:58;;;;;;;21.60;19.40;;;;;;;13.69;86.70;99837.29;436129;1253;139683;-63
2023/09/10 03:46:04;;;;;;;22.10;19.80;;;;;;;13.74;88.99;99829.73;435783;1254;139803;-63
2023/09/10 03:56:10;;;;;;;25.00;22.60;;;;;;;13.78;89.90;99824.57;435586;1254;139628;-63
2023/09/10 04:06:15;;;;;;;20.30;18.20;;;;;;;13.77;90.05;99817.71;436099;1255;139680;-63
2023/09/10 04:16:21;;;;;;;21.10;19.00;;;;;;;13.73;89.87;99811.50;435429;1254;139511;-63
2023/09/10 04:26:27;;;;;;;23.70;21.30;;;;;;;13.82;91.12;99809.09;435618;1256;140893;-64
2023/09/10 04:36:33;;;;;;;25.40;21.60;;;;;;;14.03;92.19;99809.30;436069;1256;139131;-63
2023/09/10 04:46:39;;;;;;;24.30;22.00;;;;;;;14.36;93.09;99809.82;436105;1253;139701;-63
2023/09/10 04:56:46;;;;;;;23.30;21.10;;;;;;;14.82;93.60;99802.48;436141;1253;139421;-63
2023/09/10 05:06:52;;;;;;;25.10;22.80;;;;;;;15.38;93.64;99805.29;435992;1253;140058;-63
2023/09/10 05:16:58;;;;;;;22.70;20.40;;;;;;;16.11;93.39;99801.48;435706;1254;139850;-63
2023/09/10 05:27:05;;;;;;;20.70;18.80;;;;;;;17.48;93.14;99802.27;435512;1254;139625;-63
2023/09/10 05:37:10;;;;;;;16.00;14.60;;;;;;;21.50;92.00;99803.23;436012;1256;139185;-64
2023/09/10 05:47:19;;;;;;;15.80;14.50;;;;;;;25.93;80.03;99808.02;435803;1253;139235;-64
2023/09/10 05:57:25;;;;;;;14.10;12.80;;;;;;;30.07;67.49;99818.60;436426;1256;138856;-65
2023/09/10 06:07:31;;;;;;;12.30;11.30;;;;;;;32.97;56.85;99820.62;436359;1256;138849;-65
2023/09/10 06:17:37;;;;;;;13.40;12.20;;;;;;;35.37;49.54;99820.73;435845;1254;141080;-66
2023/09/10 06:27:43;;;;;;;11.60;10.80;;;;;;;37.48;43.46;99816.54;435975;1256;139102;-66
2023/09/10 06:37:49;;;;;;;10.60;9.80;;;;;;;39.31;39.35;99821.89;435706;1256;138300;-67
2023/09/10 06:47:55;;;;;;;11.40;10.30;;;;;;;40.83;35.92;99821.41;435951;1256;138753;-67
2023/09/10 06:58:01;;;;;;;9.30;8.60;;;;;;;42.44;33.04;99821.90;435911;1256;138472;-66
2023/09/10 07:08:08;;;;;;;8.60;8.00;;;;;;;44.05;30.45;99828.59;436296;1253;138034;-67
2023/09/10 07:18:15;;;;;;;9.40;8.70;;;;;;;45.29;28.28;99823.65;436735;1254;164395;-66
2023/09/10 07:28:21;;;;;;;8.60;7.80;;;;;;;46.38;26.30;99822.98;437080;1256;138100;-67
2023/09/10 07:38:26;;;;;;;7.70;7.00;;;;;;;47.11;24.98;99826.31;435713;1253;138480;-66
2023/09/10 07:48:32;;;;;;;8.40;7.60;;;;;;;47.64;23.86;99820.73;435774;1253;138896;-67
2023/09/10 07:58:38;;;;;;;8.10;7.50;;;;;;;47.99;23.11;99816.91;435905;1256;138829;-67
2023/09/10 08:08:44;;;;;;;8.40;7.70;;;;;;;48.48;22.51;99816.71;435855;1253;139170;-67
2023/09/10 08:18:50;;;;;;;8.70;8.00;;;;;;;49.16;21.79;99812.85;436158;1254;140358;-67
2023/09/10 08:28:56;;;;;;;8.20;7.50;;;;;;;48.53;21.39;99805.51;436148;1253;139126;-65
2023/09/10 08:39:02;;;;;;;9.70;8.80;;;;;;;47.06;21.47;99797.54;435951;1256;138823;-66
2023/09/10 08:49:09;;;;;;;9.30;8.50;;;;;;;41.39;24.04;99788.34;436189;1256;139098;-65
2023/09/10 08:59:16;;;;;;;10.50;9.50;;;;;;;36.97;27.86;99788.06;436035;1256;138436;-65
2023/09/10 09:09:23;;;;;;;9.40;8.60;;;;;;;34.48;30.66;99785.18;435276;1253;138387;-65
2023/09/10 09:19:31;;;;;;;9.30;7.50;;;;;;;33.04;33.01;99781.27;435614;1253;138070;-65
2023/09/10 09:29:38;;;;;;;8.80;7.90;;;;;;;32.30;34.24;99782.88;436451;1253;139408;-67
2023/09/10 09:39:45;;;;;;;7.60;6.80;;;;;;;31.60;35.10;99782.29;435441;1256;138221;-67
2023/09/10 09:49:51;;;;;;;9.00;8.20;;;;;;;30.86;36.17;99778.61;435524;1253;139282;-68
2023/09/10 09:59:58;;;;;;;8.10;7.30;;;;;;;30.25;37.06;99770.20;435321;1253;138723;-68
2023/09/10 10:10:02;;;;;;;;;;;;;;;29.94;37.80;99760.89;435357;1254;138691;-67
2023/09/10 10:20:10;;;;;;;6.60;6.00;;;;;;;29.53;38.19;99751.43;435664;1256;124624;-67
2023/09/10 10:30:16;;;;;;;7.30;6.50;;;;;;;29.00;38.51;99748.48;435676;1256;138670;-68
2023/09/10 10:40:28;;;;;;;7.20;6.60;;;;;;;28.62;38.94;99739.04;435645;1256;140521;-68
2023/09/10 10:50:37;;;;;;;7.50;6.70;;;;;;;28.28;39.15;99729.13;435601;1254;140112;-69
2023/09/10 11:00:43;;;;;;;8.30;6.60;;;;;;;27.91;39.64;99715.73;435870;1254;138454;-68
2023/09/10 11:10:49;;;;;;;7.00;6.30;;;;;;;27.77;40.16;99703.26;435620;1256;138780;-66
2023/09/10 11:20:55;;;;;;;7.50;6.80;;;;;;;27.64;40.60;99699.07;435413;1256;138682;-66
2023/09/10 11:31:03;;;;;;;8.10;6.30;;;;;;;27.63;41.28;99691.39;435684;1256;139089;-68
2023/09/10 11:41:10;;;;;;;6.90;6.00;;;;;;;27.61;41.26;99687.58;435801;1256;138535;-68
2023/09/10 11:51:15;;;;;;;8.00;6.40;;;;;;;27.57;41.65;99686.00;435930;1254;140520;-67
2023/09/10 12:01:22;;;;;;;7.40;6.60;;;;;;;27.50;41.60;99684.74;435598;1252;138225;-67
2023/09/10 12:11:29;;;;;;;6.60;6.10;;;;;;;27.32;42.09;99679.75;435299;1255;138589;-67
2023/09/10 12:21:33;;;;;;;;;;;;;;;27.26;42.34;99679.64;435332;1256;138414;-66
2023/09/10 12:31:40;;;;;;;6.00;5.50;;;;;;;27.25;42.57;99674.58;435337;1256;124403;-67
2023/09/10 12:41:48;;;;;;;;;;;;;;;27.26;42.55;99664.50;435782;1256;138622;-66
2023/09/10 12:51:54;;;;;;;5.90;5.30;;;;;;;27.28;42.90;99657.77;435481;1256;125456;-66
2023/09/10 13:02:02;;;;;;;10.80;6.80;;;;;;;27.33;42.89;99650.69;435462;1253;138160;-66
2023/09/10 13:12:09;;;;;;;7.40;6.40;;;;;;;27.33;42.81;99645.88;436285;1256;138770;-66
2023/09/10 13:22:14;;;;;;;7.40;6.10;;;;;;;27.28;42.95;99637.74;435519;1254;138532;-67
2023/09/10 13:32:20;;;;;;;7.90;6.30;;;;;;;27.26;43.02;99631.45;435075;1256;138805;-66
2023/09/10 13:42:26;;;;;;;5.70;5.20;;;;;;;27.32;42.86;99623.23;435603;1256;138030;-65
2023/09/10 13:52:32;;;;;;;6.60;6.00;;;;;;;27.33;42.72;99619.29;435402;1254;138554;-66
2023/09/10 14:02:38;;;;;;;6.10;5.50;;;;;;;27.31;42.83;99619.46;436232;1256;138634;-66
2023/09/10 14:12:44;;;;;;;6.20;5.70;;;;;;;27.34;42.51;99615.05;436398;1256;138138;-66
2023/09/10 14:22:53;;;;;;;6.20;5.30;;;;;;;27.37;42.35;99612.98;435592;1257;138275;-66
2023/09/10 14:32:59;;;;;;;6.00;5.50;;;;;;;27.38;42.62;99613.52;435456;1257;139815;-66
2023/09/10 14:43:05;;;;;;;8.00;6.10;;;;;;;27.36;42.22;99611.08;435696;1257;138021;-65
2023/09/10 14:53:14;;;;;;;6.50;5.90;;;;;;;27.33;42.22;99607.44;436293;1254;139005;-66
2023/09/10 15:03:21;;;;;;;6.10;5.50;;;;;;;27.28;41.89;99603.61;435350;1254;138885;-67
2023/09/10 15:13:29;;;;;;;6.10;5.00;;;;;;;27.23;41.68;99598.73;435812;1256;138181;-66
2023/09/10 15:23:35;;;;;;;6.50;5.40;;;;;;;27.17;41.85;99586.50;435977;1254;138463;-66
2023/09/10 15:33:41;;;;;;;6.40;5.80;;;;;;;27.11;42.60;99578.21;435454;1256;138931;-66
2023/09/10 15:43:47;;;;;;;5.90;5.40;;;;;;;27.02;42.98;99569.05;436132;1256;137967;-66
2023/09/10 15:53:53;;;;;;;7.90;5.30;;;;;;;26.90;42.99;99565.81;435629;1254;138537;-66
2023/09/10 16:03:59;;;;;;;7.90;5.50;;;;;;;26.71;43.66;99565.06;435714;1255;138756;-66
2023/09/10 16:14:05;;;;;;;10.50;6.30;;;;;;;26.49;44.06;99565.52;435580;1254;137928;-66
2023/09/10 16:24:11;;;;;;;14.30;6.90;;;;;;;26.21;44.80;99561.02;435867;1254;139291;-64
2023/09/10 16:34:17;;;;;;;14.50;7.80;;;;;;;25.91;45.78;99561.83;435431;1256;138932;-65
2023/09/10 16:44:27;;;;;;;23.90;7.50;;;;;;;25.58;47.86;99564.38;435324;1257;138252;-65
2023/09/10 16:54:33;;;;;;;13.70;7.30;;;;;;;25.12;49.84;99571.64;436647;1253;140060;-64
2023/09/10 17:04:39;;;;;;;14.30;7.50;;;;;;;24.64;51.49;99571.65;435671;1256;138549;-66
2023/09/10 17:14:49;;;;;;;22.40;8.90;;;;;;;24.12;53.52;99572.30;435412;1257;138337;-66
2023/09/10 17:24:55;;;;;;;25.60;12.70;;;;;;;23.57;55.38;99568.23;435498;1254;139251;-65
2023/09/10 17:35:02;;;;;;;11.60;9.00;;;;;;;23.06;56.84;99569.91;435220;1254;138947;-66
2023/09/10 17:45:10;;;;;;;12.50;9.40;;;;;;;22.74;57.15;99572.27;435681;1254;139010;-66
2023/09/10 17:55:17;;;;;;;14.10;11.50;;;;;;;22.40;58.61;99573.52;435871;1254;138625;-69
2023/09/10 18:05:23;;;;;;;15.90;12.80;;;;;;;22.04;60.37;99574.73;435298;1256;139840;-65
2023/09/10 18:15:30;;;;;;;20.60;12.70;;;;;;;21.71;61.73;99577.35;435990;1254;140496;-66
2023/09/10 18:25:36;;;;;;;14.00;11.60;;;;;;;21.40;62.66;99586.41;435720;1254;140239;-66
2023/09/10 18:35:43;;;;;;;17.90;14.00;;;;;;;21.11;63.88;99592.04;435437;1256;140348;-66
2023/09/10 18:45:52;;;;;;;;;;;;;;;20.81;65.11;99601.65;435523;1253;139424;-65
2023/09/10 18:55:58;;;;;;;21.50;16.50;;;;;;;20.51;66.27;99592.16;436159;1253;126370;-65
2023/09/10 19:06:04;;;;;;;23.20;16.90;;;;;;;20.23;67.11;99584.61;435699;1254;140436;-66
2023/09/10 19:16:10;;;;;;;19.30;15.00;;;;;;;19.94;67.90;99582.28;435567;1253;139640;-66
2023/09/10 19:26:16;;;;;;;22.10;15.40;;;;;;;19.63;68.69;99582.55;435958;1254;163026;-66
2023/09/10 19:36:23;;;;;;;19.00;14.50;;;;;;;19.32;69.48;99587.83;436153;1254;139200;-65
2023/09/10 19:46:29;;;;;;;27.40;22.40;;;;;;;19.06;70.68;99587.70;436014;1256;139822;-66
2023/09/10 19:56:35;;;;;;;18.30;15.00;;;;;;;18.84;71.47;99584.92;436453;1253;139632;-65
2023/09/10 20:06:42;;;;;;;18.00;14.00;;;;;;;18.60;71.91;99590.41;436324;1256;139755;-66
2023/09/10 20:16:48;;;;;;;21.80;14.40;;;;;;;18.33;72.70;99582.52;435724;1253;141059;-64
2023/09/10 20:26:54;;;;;;;15.40;13.80;;;;;;;18.09;73.98;99578.41;435538;1256;139488;-64
2023/09/10 20:37:00;;;;;;;17.40;13.40;;;;;;;17.90;74.82;99572.22;435664;1253;139052;-66
2023/09/10 20:47:06;;;;;;;16.70;13.90;;;;;;;17.74;75.16;99570.91;435481;1254;140067;-65
2023/09/10 20:57:12;;;;;;;19.00;12.70;;;;;;;17.49;75.80;99572.67;435331;1254;139368;-66
2023/09/10 21:07:18;;;;;;;20.30;15.50;;;;;;;17.28;76.42;99575.70;435794;1256;138991;-65
2023/09/10 21:17:25;;;;;;;17.40;13.70;;;;;;;17.08;77.27;99574.36;436220;1255;139279;-66
2023/09/10 21:27:31;;;;;;;14.90;13.20;;;;;;;16.92;78.07;99575.56;435474;1256;140134;-64
2023/09/10 21:37:36;;;;;;;14.90;13.40;;;;;;;16.80;78.46;99574.31;435446;1253;139805;-66
2023/09/10 21:47:42;;;;;;;15.00;12.70;;;;;;;16.61;78.53;99578.66;436034;1253;140091;-65
2023/09/10 21:57:48;;;;;;;17.80;13.90;;;;;;;16.45;78.95;99570.55;435708;1253;140748;-65
2023/09/10 22:07:54;;;;;;;15.30;13.80;;;;;;;16.32;80.10;99568.17;436465;1254;141323;-65
2023/09/10 22:18:00;;;;;;;15.20;13.70;;;;;;;16.19;80.25;99559.39;435554;1253;139478;-65
2023/09/10 22:28:07;;;;;;;17.30;15.00;;;;;;;16.07;80.97;99555.48;435565;1256;140409;-66
2023/09/10 22:38:13;;;;;;;14.30;12.50;;;;;;;15.97;81.56;99553.95;435980;1256;139204;-66
2023/09/10 22:48:19;;;;;;;15.50;13.40;;;;;;;15.83;81.65;99554.20;435692;1254;139726;-66
2023/09/10 22:58:26;;;;;;;15.20;13.30;;;;;;;15.69;82.34;99553.23;435096;1252;139596;-65
2023/09/10 23:08:32;;;;;;;16.20;14.60;;;;;;;15.59;82.85;99549.92;435152;1257;139375;-65
2023/09/10 23:18:37;;;;;;;16.00;14.40;;;;;;;15.45;83.07;99545.59;435514;1252;139466;-66
2023/09/10 23:28:44;;;;;;;15.40;12.90;;;;;;;15.35;84.04;99547.29;435552;1253;139325;-65
2023/09/10 23:38:49;;;;;;;17.80;14.80;;;;;;;15.23;83.81;99550.24;435404;1257;139318;-65
2023/09/10 23:48:55;;;;;;;17.50;15.70;;;;;;;15.14;84.46;99544.00;435987;1257;139104;-67
2023/09/10 23:59:01;;;;;;;16.10;14.60;;;;;;;15.05;85.02;99541.56;435411;1253;139778;-65
